sensor_id;sensor_type;location;lat;lon;timestamp;P1;durP1;ratioP1;P2;durP2;ratioP2
66212;SDS011;53015;50.046;8.238;2022-07-10T00:01:26;2.28;;;1.35;;
66212;SDS011;53015;50.046;8.238;2022-07-10T00:03:52;3.75;;;1.50;;
66212;SDS011;53015;50.046;8.238;2022-07-10T00:06:19;5.25;;;1.70;;
66212;SDS011;53015;50.046;8.238;2022-07-10T00:08:44;3.47;;;1.67;;
66212;SDS011;53015;50.046;8.238;2022-07-10T00:11:11;3.75;;;1.60;;
66212;SDS011;53015;50.046;8.238;2022-07-10T00:13:36;2.67;;;1.60;;
66212;SDS011;53015;50.046;8.238;2022-07-10T00:16:02;4.80;;;1.48;;
66212;SDS011;53015;50.046;8.238;2022-07-10T00:18:28;4.93;;;1.50;;
66212;SDS011;53015;50.046;8.238;2022-07-10T00:20:54;3.45;;;1.30;;
66212;SDS011;53015;50.046;8.238;2022-07-10T00:23:19;4.13;;;1.20;;
66212;SDS011;53015;50.046;8.238;2022-07-10T00:25:45;5.78;;;1.40;;
66212;SDS011;53015;50.046;8.238;2022-07-10T00:28:10;3.08;;;1.23;;
66212;SDS011;53015;50.046;8.238;2022-07-10T00:30:36;3.15;;;1.30;;
66212;SDS011;53015;50.046;8.238;2022-07-10T00:33:02;3.08;;;1.38;;
66212;SDS011;53015;50.046;8.238;2022-07-10T00:35:28;3.28;;;1.20;;
66212;SDS011;53015;50.046;8.238;2022-07-10T00:37:54;2.95;;;1.10;;
66212;SDS011;53015;50.046;8.238;2022-07-10T00:40:19;2.90;;;1.40;;
66212;SDS011;53015;50.046;8.238;2022-07-10T00:42:45;3.70;;;1.33;;
66212;SDS011;53015;50.046;8.238;2022-07-10T00:45:11;5.05;;;1.20;;
66212;SDS011;53015;50.046;8.238;2022-07-10T00:47:36;2.60;;;1.10;;
66212;SDS011;53015;50.046;8.238;2022-07-10T00:50:02;3.40;;;1.27;;
66212;SDS011;53015;50.046;8.238;2022-07-10T00:52:29;2.13;;;1.10;;
66212;SDS011;53015;50.046;8.238;2022-07-10T00:54:55;5.38;;;1.30;;
66212;SDS011;53015;50.046;8.238;2022-07-10T00:57:21;3.30;;;1.27;;
66212;SDS011;53015;50.046;8.238;2022-07-10T00:59:47;4.38;;;1.27;;
66212;SDS011;53015;50.046;8.238;2022-07-10T01:02:14;5.13;;;1.30;;
66212;SDS011;53015;50.046;8.238;2022-07-10T01:04:39;4.55;;;1.10;;
66212;SDS011;53015;50.046;8.238;2022-07-10T01:07:05;1.55;;;1.08;;
66212;SDS011;53015;50.046;8.238;2022-07-10T01:09:31;3.60;;;1.02;;
66212;SDS011;53015;50.046;8.238;2022-07-10T01:11:58;3.08;;;1.15;;
66212;SDS011;53015;50.046;8.238;2022-07-10T01:14:26;5.63;;;1.23;;
66212;SDS011;53015;50.046;8.238;2022-07-10T01:16:53;5.97;;;1.42;;
66212;SDS011;53015;50.046;8.238;2022-07-10T01:19:18;5.95;;;1.23;;
66212;SDS011;53015;50.046;8.238;2022-07-10T01:21:44;2.83;;;1.20;;
66212;SDS011;53015;50.046;8.238;2022-07-10T01:24:10;6.85;;;1.75;;
66212;SDS011;53015;50.046;8.238;2022-07-10T01:26:36;4.63;;;1.38;;
66212;SDS011;53015;50.046;8.238;2022-07-10T01:29:03;3.40;;;1.20;;
66212;SDS011;53015;50.046;8.238;2022-07-10T01:31:30;5.15;;;1.10;;
66212;SDS011;53015;50.046;8.238;2022-07-10T01:33:57;2.53;;;1.23;;
66212;SDS011;53015;50.046;8.238;2022-07-10T01:36:25;2.72;;;1.10;;
66212;SDS011;53015;50.046;8.238;2022-07-10T01:38:53;4.25;;;1.50;;
66212;SDS011;53015;50.046;8.238;2022-07-10T01:41:19;4.68;;;1.40;;
66212;SDS011;53015;50.046;8.238;2022-07-10T01:43:44;3.22;;;1.00;;
66212;SDS011;53015;50.046;8.238;2022-07-10T01:46:11;1.83;;;1.00;;
66212;SDS011;53015;50.046;8.238;2022-07-10T01:48:37;2.75;;;1.10;;
66212;SDS011;53015;50.046;8.238;2022-07-10T01:51:03;5.95;;;1.25;;
66212;SDS011;53015;50.046;8.238;2022-07-10T01:53:29;4.63;;;1.00;;
66212;SDS011;53015;50.046;8.238;2022-07-10T01:55:55;5.70;;;1.45;;
66212;SDS011;53015;50.046;8.238;2022-07-10T01:58:20;4.80;;;1.10;;
66212;SDS011;53015;50.046;8.238;2022-07-10T02:00:46;3.20;;;1.10;;
66212;SDS011;53015;50.046;8.238;2022-07-10T02:03:11;2.63;;;1.10;;
66212;SDS011;53015;50.046;8.238;2022-07-10T02:05:55;4.03;;;1.40;;
66212;SDS011;53015;50.046;8.238;2022-07-10T02:08:20;2.75;;;0.90;;
66212;SDS011;53015;50.046;8.238;2022-07-10T02:10:46;2.85;;;1.30;;
66212;SDS011;53015;50.046;8.238;2022-07-10T02:13:11;4.25;;;1.65;;
66212;SDS011;53015;50.046;8.238;2022-07-10T02:15:39;3.03;;;1.30;;
66212;SDS011;53015;50.046;8.238;2022-07-10T02:18:05;5.32;;;1.10;;
66212;SDS011;53015;50.046;8.238;2022-07-10T02:20:30;6.78;;;1.42;;
66212;SDS011;53015;50.046;8.238;2022-07-10T02:22:58;6.68;;;1.38;;
66212;SDS011;53015;50.046;8.238;2022-07-10T02:25:23;3.28;;;1.10;;
66212;SDS011;53015;50.046;8.238;2022-07-10T02:27:49;2.75;;;1.00;;
66212;SDS011;53015;50.046;8.238;2022-07-10T02:30:14;5.78;;;1.10;;
66212;SDS011;53015;50.046;8.238;2022-07-10T02:32:40;5.90;;;1.27;;
66212;SDS011;53015;50.046;8.238;2022-07-10T02:35:05;5.10;;;1.27;;
66212;SDS011;53015;50.046;8.238;2022-07-10T02:37:31;3.42;;;1.05;;
66212;SDS011;53015;50.046;8.238;2022-07-10T02:39:56;2.90;;;1.00;;
66212;SDS011;53015;50.046;8.238;2022-07-10T02:42:22;5.72;;;1.13;;
66212;SDS011;53015;50.046;8.238;2022-07-10T02:44:47;3.42;;;1.23;;
66212;SDS011;53015;50.046;8.238;2022-07-10T02:47:12;3.63;;;1.20;;
66212;SDS011;53015;50.046;8.238;2022-07-10T02:49:38;3.80;;;1.00;;
66212;SDS011;53015;50.046;8.238;2022-07-10T02:52:03;5.60;;;1.30;;
66212;SDS011;53015;50.046;8.238;2022-07-10T02:54:29;2.10;;;1.05;;
66212;SDS011;53015;50.046;8.238;2022-07-10T02:56:55;5.50;;;1.67;;
66212;SDS011;53015;50.046;8.238;2022-07-10T02:59:20;2.40;;;1.05;;
66212;SDS011;53015;50.046;8.238;2022-07-10T03:01:46;3.35;;;1.13;;
66212;SDS011;53015;50.046;8.238;2022-07-10T03:04:11;3.60;;;1.25;;
66212;SDS011;53015;50.046;8.238;2022-07-10T03:06:36;4.63;;;1.20;;
66212;SDS011;53015;50.046;8.238;2022-07-10T03:09:03;3.67;;;1.10;;
66212;SDS011;53015;50.046;8.238;2022-07-10T03:11:28;2.15;;;1.17;;
66212;SDS011;53015;50.046;8.238;2022-07-10T03:13:54;3.90;;;1.00;;
66212;SDS011;53015;50.046;8.238;2022-07-10T03:16:19;5.28;;;1.52;;
66212;SDS011;53015;50.046;8.238;2022-07-10T03:18:45;4.13;;;1.00;;
66212;SDS011;53015;50.046;8.238;2022-07-10T03:21:10;3.40;;;1.20;;
66212;SDS011;53015;50.046;8.238;2022-07-10T03:23:36;3.28;;;1.45;;
66212;SDS011;53015;50.046;8.238;2022-07-10T03:26:01;6.30;;;1.20;;
66212;SDS011;53015;50.046;8.238;2022-07-10T03:28:27;2.22;;;1.00;;
66212;SDS011;53015;50.046;8.238;2022-07-10T03:30:52;5.32;;;1.05;;
66212;SDS011;53015;50.046;8.238;2022-07-10T03:33:17;3.67;;;0.90;;
66212;SDS011;53015;50.046;8.238;2022-07-10T03:35:43;5.63;;;1.38;;
66212;SDS011;53015;50.046;8.238;2022-07-10T03:38:08;2.60;;;0.80;;
66212;SDS011;53015;50.046;8.238;2022-07-10T03:40:34;4.93;;;1.00;;
66212;SDS011;53015;50.046;8.238;2022-07-10T03:42:59;3.33;;;1.40;;
66212;SDS011;53015;50.046;8.238;2022-07-10T03:45:25;4.28;;;1.02;;
66212;SDS011;53015;50.046;8.238;2022-07-10T03:47:50;3.78;;;1.00;;
66212;SDS011;53015;50.046;8.238;2022-07-10T03:50:15;5.00;;;1.20;;
66212;SDS011;53015;50.046;8.238;2022-07-10T03:52:41;4.22;;;1.30;;
66212;SDS011;53015;50.046;8.238;2022-07-10T03:55:06;4.07;;;1.35;;
66212;SDS011;53015;50.046;8.238;2022-07-10T03:57:32;4.95;;;1.27;;
66212;SDS011;53015;50.046;8.238;2022-07-10T04:00:16;2.90;;;0.85;;
66212;SDS011;53015;50.046;8.238;2022-07-10T04:02:42;3.15;;;1.20;;
66212;SDS011;53015;50.046;8.238;2022-07-10T04:05:07;3.92;;;1.27;;
66212;SDS011;53015;50.046;8.238;2022-07-10T04:07:36;5.63;;;1.08;;
66212;SDS011;53015;50.046;8.238;2022-07-10T04:10:02;2.35;;;1.10;;
66212;SDS011;53015;50.046;8.238;2022-07-10T04:12:28;5.93;;;1.65;;
66212;SDS011;53015;50.046;8.238;2022-07-10T04:14:54;3.88;;;1.23;;
66212;SDS011;53015;50.046;8.238;2022-07-10T04:17:19;6.20;;;1.10;;
66212;SDS011;53015;50.046;8.238;2022-07-10T04:19:45;5.88;;;1.10;;
66212;SDS011;53015;50.046;8.238;2022-07-10T04:22:11;3.95;;;1.23;;
66212;SDS011;53015;50.046;8.238;2022-07-10T04:24:36;2.80;;;1.00;;
66212;SDS011;53015;50.046;8.238;2022-07-10T04:27:02;7.75;;;1.20;;
66212;SDS011;53015;50.046;8.238;2022-07-10T04:29:28;2.28;;;0.88;;
66212;SDS011;53015;50.046;8.238;2022-07-10T04:31:53;2.28;;;0.80;;
66212;SDS011;53015;50.046;8.238;2022-07-10T04:34:19;2.92;;;1.05;;
66212;SDS011;53015;50.046;8.238;2022-07-10T04:36:44;4.15;;;0.93;;
66212;SDS011;53015;50.046;8.238;2022-07-10T04:39:10;2.55;;;1.08;;
66212;SDS011;53015;50.046;8.238;2022-07-10T04:41:35;4.32;;;1.00;;
66212;SDS011;53015;50.046;8.238;2022-07-10T04:44:00;2.90;;;1.48;;
66212;SDS011;53015;50.046;8.238;2022-07-10T04:46:26;3.35;;;1.10;;
66212;SDS011;53015;50.046;8.238;2022-07-10T04:48:51;4.97;;;1.00;;
66212;SDS011;53015;50.046;8.238;2022-07-10T04:51:17;5.57;;;1.00;;
66212;SDS011;53015;50.046;8.238;2022-07-10T04:53:43;2.50;;;1.08;;
66212;SDS011;53015;50.046;8.238;2022-07-10T04:56:09;4.07;;;1.30;;
66212;SDS011;53015;50.046;8.238;2022-07-10T04:58:34;2.65;;;0.93;;
66212;SDS011;53015;50.046;8.238;2022-07-10T05:01:00;2.75;;;1.00;;
66212;SDS011;53015;50.046;8.238;2022-07-10T05:03:25;6.35;;;1.05;;
66212;SDS011;53015;50.046;8.238;2022-07-10T05:05:51;2.60;;;0.80;;
66212;SDS011;53015;50.046;8.238;2022-07-10T05:08:16;4.35;;;1.02;;
66212;SDS011;53015;50.046;8.238;2022-07-10T05:10:42;4.28;;;1.00;;
66212;SDS011;53015;50.046;8.238;2022-07-10T05:13:07;3.50;;;0.90;;
66212;SDS011;53015;50.046;8.238;2022-07-10T05:15:32;6.68;;;1.17;;
66212;SDS011;53015;50.046;8.238;2022-07-10T05:17:58;3.10;;;1.08;;
66212;SDS011;53015;50.046;8.238;2022-07-10T05:20:23;5.93;;;1.13;;
66212;SDS011;53015;50.046;8.238;2022-07-10T05:22:48;1.48;;;0.80;;
66212;SDS011;53015;50.046;8.238;2022-07-10T05:25:14;4.18;;;0.93;;
66212;SDS011;53015;50.046;8.238;2022-07-10T05:27:39;3.70;;;0.77;;
66212;SDS011;53015;50.046;8.238;2022-07-10T05:30:05;4.30;;;0.90;;
66212;SDS011;53015;50.046;8.238;2022-07-10T05:32:30;3.80;;;0.93;;
66212;SDS011;53015;50.046;8.238;2022-07-10T05:34:58;2.85;;;1.20;;
66212;SDS011;53015;50.046;8.238;2022-07-10T05:37:24;5.07;;;0.90;;
66212;SDS011;53015;50.046;8.238;2022-07-10T05:39:49;4.93;;;0.73;;
66212;SDS011;53015;50.046;8.238;2022-07-10T05:42:15;3.38;;;0.95;;
66212;SDS011;53015;50.046;8.238;2022-07-10T05:44:40;5.05;;;1.00;;
66212;SDS011;53015;50.046;8.238;2022-07-10T05:47:06;4.15;;;1.08;;
66212;SDS011;53015;50.046;8.238;2022-07-10T05:49:32;2.88;;;0.68;;
66212;SDS011;53015;50.046;8.238;2022-07-10T05:51:57;5.18;;;0.82;;
66212;SDS011;53015;50.046;8.238;2022-07-10T05:54:23;3.47;;;1.23;;
66212;SDS011;53015;50.046;8.238;2022-07-10T05:56:48;3.08;;;0.82;;
66212;SDS011;53015;50.046;8.238;2022-07-10T05:59:14;3.33;;;1.00;;
66212;SDS011;53015;50.046;8.238;2022-07-10T06:01:39;6.10;;;0.98;;
66212;SDS011;53015;50.046;8.238;2022-07-10T06:04:05;1.45;;;0.68;;
66212;SDS011;53015;50.046;8.238;2022-07-10T06:06:31;3.95;;;0.60;;
66212;SDS011;53015;50.046;8.238;2022-07-10T06:08:56;1.50;;;0.60;;
66212;SDS011;53015;50.046;8.238;2022-07-10T06:11:21;4.25;;;1.05;;
66212;SDS011;53015;50.046;8.238;2022-07-10T06:13:47;3.95;;;0.88;;
66212;SDS011;53015;50.046;8.238;2022-07-10T06:16:12;3.28;;;0.57;;
66212;SDS011;53015;50.046;8.238;2022-07-10T06:18:38;4.85;;;0.95;;
66212;SDS011;53015;50.046;8.238;2022-07-10T06:21:03;5.57;;;1.05;;
66212;SDS011;53015;50.046;8.238;2022-07-10T06:23:29;2.30;;;0.68;;
66212;SDS011;53015;50.046;8.238;2022-07-10T06:25:54;4.28;;;0.70;;
66212;SDS011;53015;50.046;8.238;2022-07-10T06:28:20;2.17;;;0.60;;
66212;SDS011;53015;50.046;8.238;2022-07-10T06:30:46;1.60;;;0.52;;
66212;SDS011;53015;50.046;8.238;2022-07-10T06:33:12;3.15;;;0.80;;
66212;SDS011;53015;50.046;8.238;2022-07-10T06:35:37;2.78;;;0.80;;
66212;SDS011;53015;50.046;8.238;2022-07-10T06:38:03;5.80;;;0.65;;
66212;SDS011;53015;50.046;8.238;2022-07-10T06:40:28;5.07;;;1.10;;
66212;SDS011;53015;50.046;8.238;2022-07-10T06:42:54;3.15;;;0.50;;
66212;SDS011;53015;50.046;8.238;2022-07-10T06:45:20;3.80;;;0.95;;
66212;SDS011;53015;50.046;8.238;2022-07-10T06:47:45;1.73;;;0.60;;
66212;SDS011;53015;50.046;8.238;2022-07-10T06:50:27;3.35;;;0.80;;
66212;SDS011;53015;50.046;8.238;2022-07-10T06:52:59;4.40;;;0.85;;
66212;SDS011;53015;50.046;8.238;2022-07-10T06:55:25;3.15;;;0.82;;
66212;SDS011;53015;50.046;8.238;2022-07-10T06:57:51;3.97;;;0.75;;
66212;SDS011;53015;50.046;8.238;2022-07-10T07:00:17;2.50;;;0.57;;
66212;SDS011;53015;50.046;8.238;2022-07-10T07:02:43;2.42;;;0.50;;
66212;SDS011;53015;50.046;8.238;2022-07-10T07:05:08;6.68;;;1.23;;
66212;SDS011;53015;50.046;8.238;2022-07-10T07:07:34;2.28;;;1.00;;
66212;SDS011;53015;50.046;8.238;2022-07-10T07:10:01;1.20;;;0.40;;
66212;SDS011;53015;50.046;8.238;2022-07-10T07:12:28;4.13;;;0.60;;
66212;SDS011;53015;50.046;8.238;2022-07-10T07:14:53;4.70;;;0.90;;
66212;SDS011;53015;50.046;8.238;2022-07-10T07:17:19;3.45;;;0.70;;
66212;SDS011;53015;50.046;8.238;2022-07-10T07:19:49;2.45;;;0.80;;
66212;SDS011;53015;50.046;8.238;2022-07-10T07:22:33;4.22;;;0.95;;
66212;SDS011;53015;50.046;8.238;2022-07-10T07:25:17;2.72;;;0.40;;
66212;SDS011;53015;50.046;8.238;2022-07-10T07:27:42;2.22;;;0.40;;
66212;SDS011;53015;50.046;8.238;2022-07-10T07:30:12;3.60;;;0.80;;
66212;SDS011;53015;50.046;8.238;2022-07-10T07:32:43;4.20;;;0.63;;
66212;SDS011;53015;50.046;8.238;2022-07-10T07:35:10;2.13;;;0.68;;
66212;SDS011;53015;50.046;8.238;2022-07-10T07:37:43;2.08;;;0.60;;
66212;SDS011;53015;50.046;8.238;2022-07-10T07:40:11;3.40;;;0.70;;
66212;SDS011;53015;50.046;8.238;2022-07-10T07:42:40;4.90;;;0.70;;
66212;SDS011;53015;50.046;8.238;2022-07-10T07:45:06;2.42;;;0.70;;
66212;SDS011;53015;50.046;8.238;2022-07-10T07:47:42;2.63;;;0.60;;
66212;SDS011;53015;50.046;8.238;2022-07-10T07:50:09;1.15;;;0.30;;
66212;SDS011;53015;50.046;8.238;2022-07-10T07:52:35;2.65;;;0.60;;
66212;SDS011;53015;50.046;8.238;2022-07-10T07:55:00;3.65;;;0.55;;
66212;SDS011;53015;50.046;8.238;2022-07-10T07:57:26;5.20;;;0.85;;
66212;SDS011;53015;50.046;8.238;2022-07-10T07:59:51;2.92;;;0.75;;
66212;SDS011;53015;50.046;8.238;2022-07-10T08:02:17;3.97;;;0.75;;
66212;SDS011;53015;50.046;8.238;2022-07-10T08:04:42;2.35;;;0.82;;
66212;SDS011;53015;50.046;8.238;2022-07-10T08:07:07;1.75;;;0.50;;
66212;SDS011;53015;50.046;8.238;2022-07-10T08:09:33;2.53;;;0.60;;
66212;SDS011;53015;50.046;8.238;2022-07-10T08:11:59;2.40;;;0.57;;
66212;SDS011;53015;50.046;8.238;2022-07-10T08:14:25;2.58;;;0.77;;
66212;SDS011;53015;50.046;8.238;2022-07-10T08:16:50;2.40;;;0.73;;
66212;SDS011;53015;50.046;8.238;2022-07-10T08:19:16;4.15;;;1.00;;
66212;SDS011;53015;50.046;8.238;2022-07-10T08:21:41;3.47;;;0.82;;
66212;SDS011;53015;50.046;8.238;2022-07-10T08:24:07;2.10;;;1.05;;
66212;SDS011;53015;50.046;8.238;2022-07-10T08:26:32;5.15;;;0.90;;
66212;SDS011;53015;50.046;8.238;2022-07-10T08:28:57;3.50;;;0.90;;
66212;SDS011;53015;50.046;8.238;2022-07-10T08:31:23;6.13;;;0.95;;
66212;SDS011;53015;50.046;8.238;2022-07-10T08:33:48;2.03;;;0.47;;
66212;SDS011;53015;50.046;8.238;2022-07-10T08:36:16;3.42;;;0.60;;
66212;SDS011;53015;50.046;8.238;2022-07-10T08:38:41;1.65;;;0.57;;
66212;SDS011;53015;50.046;8.238;2022-07-10T08:41:06;3.75;;;0.93;;
66212;SDS011;53015;50.046;8.238;2022-07-10T08:43:32;4.53;;;0.90;;
66212;SDS011;53015;50.046;8.238;2022-07-10T08:45:58;2.58;;;0.98;;
66212;SDS011;53015;50.046;8.238;2022-07-10T08:48:24;4.47;;;0.82;;
66212;SDS011;53015;50.046;8.238;2022-07-10T08:50:53;5.35;;;0.85;;
66212;SDS011;53015;50.046;8.238;2022-07-10T08:53:29;5.30;;;0.90;;
66212;SDS011;53015;50.046;8.238;2022-07-10T08:55:56;3.95;;;0.80;;
66212;SDS011;53015;50.046;8.238;2022-07-10T08:58:22;4.35;;;0.80;;
66212;SDS011;53015;50.046;8.238;2022-07-10T09:00:48;8.57;;;0.85;;
66212;SDS011;53015;50.046;8.238;2022-07-10T09:03:14;2.85;;;1.05;;
66212;SDS011;53015;50.046;8.238;2022-07-10T09:05:39;3.20;;;0.60;;
66212;SDS011;53015;50.046;8.238;2022-07-10T09:08:18;2.85;;;0.82;;
66212;SDS011;53015;50.046;8.238;2022-07-10T09:10:51;1.15;;;0.52;;
66212;SDS011;53015;50.046;8.238;2022-07-10T09:13:17;3.53;;;0.65;;
66212;SDS011;53015;50.046;8.238;2022-07-10T09:15:47;2.33;;;0.68;;
66212;SDS011;53015;50.046;8.238;2022-07-10T09:18:17;7.20;;;1.10;;
66212;SDS011;53015;50.046;8.238;2022-07-10T09:20:44;3.83;;;0.98;;
66212;SDS011;53015;50.046;8.238;2022-07-10T09:23:15;4.47;;;0.73;;
66212;SDS011;53015;50.046;8.238;2022-07-10T09:25:48;2.67;;;0.80;;
66212;SDS011;53015;50.046;8.238;2022-07-10T09:28:18;3.22;;;0.93;;
66212;SDS011;53015;50.046;8.238;2022-07-10T09:30:45;1.77;;;0.85;;
66212;SDS011;53015;50.046;8.238;2022-07-10T09:33:18;2.08;;;0.85;;
66212;SDS011;53015;50.046;8.238;2022-07-10T09:41:24;4.72;;;0.82;;
66212;SDS011;53015;50.046;8.238;2022-07-10T09:46:26;5.70;;;1.50;;
66212;SDS011;53015;50.046;8.238;2022-07-10T09:49:03;3.08;;;0.93;;
66212;SDS011;53015;50.046;8.238;2022-07-10T09:51:30;2.85;;;0.70;;
66212;SDS011;53015;50.046;8.238;2022-07-10T09:53:57;7.53;;;0.90;;
66212;SDS011;53015;50.046;8.238;2022-07-10T09:56:26;3.05;;;0.80;;
66212;SDS011;53015;50.046;8.238;2022-07-10T09:58:52;5.15;;;1.00;;
66212;SDS011;53015;50.046;8.238;2022-07-10T10:01:23;5.45;;;0.82;;
66212;SDS011;53015;50.046;8.238;2022-07-10T10:03:48;6.22;;;1.13;;
66212;SDS011;53015;50.046;8.238;2022-07-10T10:06:14;5.75;;;1.08;;
66212;SDS011;53015;50.046;8.238;2022-07-10T10:08:45;5.63;;;1.15;;
66212;SDS011;53015;50.046;8.238;2022-07-10T10:11:19;4.78;;;0.93;;
66212;SDS011;53015;50.046;8.238;2022-07-10T10:13:46;5.32;;;1.25;;
66212;SDS011;53015;50.046;8.238;2022-07-10T10:16:12;2.80;;;0.88;;
66212;SDS011;53015;50.046;8.238;2022-07-10T10:18:37;4.95;;;1.00;;
66212;SDS011;53015;50.046;8.238;2022-07-10T10:21:26;4.65;;;1.15;;
66212;SDS011;53015;50.046;8.238;2022-07-10T10:23:53;6.00;;;0.90;;
66212;SDS011;53015;50.046;8.238;2022-07-10T10:26:20;10.07;;;1.02;;
66212;SDS011;53015;50.046;8.238;2022-07-10T10:28:47;4.32;;;0.73;;
66212;SDS011;53015;50.046;8.238;2022-07-10T10:31:14;2.72;;;0.70;;
66212;SDS011;53015;50.046;8.238;2022-07-10T10:33:40;9.38;;;1.00;;
66212;SDS011;53015;50.046;8.238;2022-07-10T10:36:07;2.20;;;0.90;;
66212;SDS011;53015;50.046;8.238;2022-07-10T10:38:56;4.70;;;0.98;;
66212;SDS011;53015;50.046;8.238;2022-07-10T10:41:30;5.25;;;1.10;;
66212;SDS011;53015;50.046;8.238;2022-07-10T10:49:23;4.28;;;0.90;;
66212;SDS011;53015;50.046;8.238;2022-07-10T10:52:03;3.58;;;0.70;;
66212;SDS011;53015;50.046;8.238;2022-07-10T11:00:01;5.18;;;1.70;;
66212;SDS011;53015;50.046;8.238;2022-07-10T11:02:32;6.85;;;1.42;;
66212;SDS011;53015;50.046;8.238;2022-07-10T11:10:31;3.65;;;1.10;;
66212;SDS011;53015;50.046;8.238;2022-07-10T11:13:08;3.53;;;0.90;;
66212;SDS011;53015;50.046;8.238;2022-07-10T11:15:46;4.32;;;0.90;;
66212;SDS011;53015;50.046;8.238;2022-07-10T11:18:20;3.83;;;0.60;;
66212;SDS011;53015;50.046;8.238;2022-07-10T11:20:53;3.85;;;1.10;;
66212;SDS011;53015;50.046;8.238;2022-07-10T11:26:06;3.88;;;1.45;;
66212;SDS011;53015;50.046;8.238;2022-07-10T11:31:20;6.72;;;1.65;;
66212;SDS011;53015;50.046;8.238;2022-07-10T11:33:47;3.97;;;0.80;;
66212;SDS011;53015;50.046;8.238;2022-07-10T11:36:17;2.75;;;0.98;;
66212;SDS011;53015;50.046;8.238;2022-07-10T11:38:58;6.95;;;1.10;;
66212;SDS011;53015;50.046;8.238;2022-07-10T11:41:28;7.03;;;0.75;;
66212;SDS011;53015;50.046;8.238;2022-07-10T11:43:54;4.30;;;0.95;;
66212;SDS011;53015;50.046;8.238;2022-07-10T11:46:23;3.75;;;0.80;;
66212;SDS011;53015;50.046;8.238;2022-07-10T11:48:49;4.57;;;0.82;;
66212;SDS011;53015;50.046;8.238;2022-07-10T11:51:26;3.35;;;0.70;;
66212;SDS011;53015;50.046;8.238;2022-07-10T11:53:54;3.25;;;1.00;;
66212;SDS011;53015;50.046;8.238;2022-07-10T11:56:33;1.75;;;0.70;;
66212;SDS011;53015;50.046;8.238;2022-07-10T11:59:01;1.90;;;0.90;;
66212;SDS011;53015;50.046;8.238;2022-07-10T12:01:28;5.63;;;0.77;;
66212;SDS011;53015;50.046;8.238;2022-07-10T12:06:30;2.00;;;0.90;;
66212;SDS011;53015;50.046;8.238;2022-07-10T12:09:03;2.08;;;0.93;;
66212;SDS011;53015;50.046;8.238;2022-07-10T12:11:29;4.60;;;1.30;;
66212;SDS011;53015;50.046;8.238;2022-07-10T12:14:09;2.72;;;1.05;;
66212;SDS011;53015;50.046;8.238;2022-07-10T12:16:43;3.97;;;1.08;;
66212;SDS011;53015;50.046;8.238;2022-07-10T12:19:11;3.20;;;0.98;;
66212;SDS011;53015;50.046;8.238;2022-07-10T12:21:39;1.75;;;0.77;;
66212;SDS011;53015;50.046;8.238;2022-07-10T12:24:05;2.28;;;0.80;;
66212;SDS011;53015;50.046;8.238;2022-07-10T12:26:33;2.33;;;0.65;;
66212;SDS011;53015;50.046;8.238;2022-07-10T12:29:04;2.30;;;0.70;;
66212;SDS011;53015;50.046;8.238;2022-07-10T12:31:30;3.60;;;1.00;;
66212;SDS011;53015;50.046;8.238;2022-07-10T12:34:00;3.60;;;1.20;;
66212;SDS011;53015;50.046;8.238;2022-07-10T12:39:13;3.00;;;0.85;;
66212;SDS011;53015;50.046;8.238;2022-07-10T12:41:53;2.40;;;0.80;;
66212;SDS011;53015;50.046;8.238;2022-07-10T12:44:35;1.30;;;0.60;;
66212;SDS011;53015;50.046;8.238;2022-07-10T12:47:08;1.08;;;0.50;;
66212;SDS011;53015;50.046;8.238;2022-07-10T12:52:34;1.63;;;0.52;;
66212;SDS011;53015;50.046;8.238;2022-07-10T12:57:45;4.32;;;0.95;;
66212;SDS011;53015;50.046;8.238;2022-07-10T13:00:12;4.22;;;0.70;;
66212;SDS011;53015;50.046;8.238;2022-07-10T13:02:38;2.13;;;0.80;;
66212;SDS011;53015;50.046;8.238;2022-07-10T13:05:04;2.65;;;0.75;;
66212;SDS011;53015;50.046;8.238;2022-07-10T13:07:33;1.35;;;0.52;;
66212;SDS011;53015;50.046;8.238;2022-07-10T13:10:03;2.20;;;0.50;;
66212;SDS011;53015;50.046;8.238;2022-07-10T13:12:30;3.92;;;1.05;;
66212;SDS011;53015;50.046;8.238;2022-07-10T13:14:57;2.80;;;0.98;;
66212;SDS011;53015;50.046;8.238;2022-07-10T13:17:22;1.85;;;0.70;;
66212;SDS011;53015;50.046;8.238;2022-07-10T13:19:48;0.57;;;0.47;;
66212;SDS011;53015;50.046;8.238;2022-07-10T13:22:15;1.83;;;0.57;;
66212;SDS011;53015;50.046;8.238;2022-07-10T13:24:41;5.97;;;0.50;;
66212;SDS011;53015;50.046;8.238;2022-07-10T13:27:06;2.05;;;0.73;;
66212;SDS011;53015;50.046;8.238;2022-07-10T13:29:32;0.93;;;0.50;;
66212;SDS011;53015;50.046;8.238;2022-07-10T13:31:57;1.25;;;0.52;;
66212;SDS011;53015;50.046;8.238;2022-07-10T13:34:23;3.30;;;0.70;;
66212;SDS011;53015;50.046;8.238;2022-07-10T13:36:48;1.48;;;0.60;;
66212;SDS011;53015;50.046;8.238;2022-07-10T13:39:14;8.55;;;0.95;;
66212;SDS011;53015;50.046;8.238;2022-07-10T13:41:39;3.53;;;1.08;;
66212;SDS011;53015;50.046;8.238;2022-07-10T13:44:05;2.72;;;0.70;;
66212;SDS011;53015;50.046;8.238;2022-07-10T13:46:30;2.47;;;0.88;;
66212;SDS011;53015;50.046;8.238;2022-07-10T13:48:56;3.58;;;1.02;;
66212;SDS011;53015;50.046;8.238;2022-07-10T13:51:21;1.73;;;0.60;;
66212;SDS011;53015;50.046;8.238;2022-07-10T13:53:47;0.90;;;0.52;;
66212;SDS011;53015;50.046;8.238;2022-07-10T13:56:13;1.23;;;0.60;;
66212;SDS011;53015;50.046;8.238;2022-07-10T13:58:38;3.03;;;0.80;;
66212;SDS011;53015;50.046;8.238;2022-07-10T14:01:04;1.73;;;0.65;;
66212;SDS011;53015;50.046;8.238;2022-07-10T14:03:29;1.30;;;0.63;;
66212;SDS011;53015;50.046;8.238;2022-07-10T14:05:56;2.58;;;0.70;;
66212;SDS011;53015;50.046;8.238;2022-07-10T14:08:22;1.70;;;0.70;;
66212;SDS011;53015;50.046;8.238;2022-07-10T14:10:47;2.50;;;0.70;;
66212;SDS011;53015;50.046;8.238;2022-07-10T14:13:13;0.93;;;0.73;;
66212;SDS011;53015;50.046;8.238;2022-07-10T14:15:38;2.50;;;0.85;;
66212;SDS011;53015;50.046;8.238;2022-07-10T14:18:05;0.82;;;0.50;;
66212;SDS011;53015;50.046;8.238;2022-07-10T14:20:30;1.08;;;0.52;;
66212;SDS011;53015;50.046;8.238;2022-07-10T14:23:16;0.70;;;0.50;;
66212;SDS011;53015;50.046;8.238;2022-07-10T14:25:41;2.58;;;0.47;;
66212;SDS011;53015;50.046;8.238;2022-07-10T14:28:07;1.30;;;0.30;;
66212;SDS011;53015;50.046;8.238;2022-07-10T14:30:32;2.45;;;0.63;;
66212;SDS011;53015;50.046;8.238;2022-07-10T14:32:58;2.25;;;0.60;;
66212;SDS011;53015;50.046;8.238;2022-07-10T14:35:23;2.47;;;0.73;;
66212;SDS011;53015;50.046;8.238;2022-07-10T14:37:48;2.13;;;0.63;;
66212;SDS011;53015;50.046;8.238;2022-07-10T14:40:14;1.20;;;0.52;;
66212;SDS011;53015;50.046;8.238;2022-07-10T14:42:39;2.42;;;0.60;;
66212;SDS011;53015;50.046;8.238;2022-07-10T14:45:05;1.35;;;0.40;;
66212;SDS011;53015;50.046;8.238;2022-07-10T14:47:31;1.48;;;0.70;;
66212;SDS011;53015;50.046;8.238;2022-07-10T14:49:58;3.17;;;0.70;;
66212;SDS011;53015;50.046;8.238;2022-07-10T14:52:23;0.82;;;0.30;;
66212;SDS011;53015;50.046;8.238;2022-07-10T14:54:50;2.03;;;0.60;;
66212;SDS011;53015;50.046;8.238;2022-07-10T14:57:16;11.05;;;0.70;;
66212;SDS011;53015;50.046;8.238;2022-07-10T14:59:41;1.67;;;0.40;;
66212;SDS011;53015;50.046;8.238;2022-07-10T15:02:07;1.95;;;0.60;;
66212;SDS011;53015;50.046;8.238;2022-07-10T15:04:32;1.13;;;0.38;;
66212;SDS011;53015;50.046;8.238;2022-07-10T15:06:58;1.10;;;0.50;;
66212;SDS011;53015;50.046;8.238;2022-07-10T15:09:23;0.82;;;0.55;;
66212;SDS011;53015;50.046;8.238;2022-07-10T15:11:48;0.95;;;0.55;;
66212;SDS011;53015;50.046;8.238;2022-07-10T15:14:14;1.40;;;0.80;;
66212;SDS011;53015;50.046;8.238;2022-07-10T15:16:39;1.52;;;0.65;;
66212;SDS011;53015;50.046;8.238;2022-07-10T15:19:05;1.05;;;0.82;;
66212;SDS011;53015;50.046;8.238;2022-07-10T15:21:31;1.15;;;0.70;;
66212;SDS011;53015;50.046;8.238;2022-07-10T15:23:57;1.42;;;0.52;;
66212;SDS011;53015;50.046;8.238;2022-07-10T15:26:22;1.75;;;0.90;;
66212;SDS011;53015;50.046;8.238;2022-07-10T15:28:48;0.75;;;0.75;;